sensor_id;sensor_type;location;lat;lon;timestamp;temperature;humidity
35497;DHT22;21609;49.298;6.844;2024-01-10T00:02:05;15.20;46.80
35497;DHT22;21609;49.298;6.844;2024-01-10T00:04:31;15.10;46.70
35497;DHT22;21609;49.298;6.844;2024-01-10T00:06:57;15.10;46.70
35497;DHT22;21609;49.298;6.844;2024-01-10T00:09:22;15.10;46.80
35497;DHT22;21609;49.298;6.844;2024-01-10T00:11:51;15.10;46.80
35497;DHT22;21609;49.298;6.844;2024-01-10T00:14:16;15.10;46.90
35497;DHT22;21609;49.298;6.844;2024-01-10T00:16:42;15.00;46.80
35497;DHT22;21609;49.298;6.844;2024-01-10T00:19:07;15.00;46.90
35497;DHT22;21609;49.298;6.844;2024-01-10T00:21:33;15.00;46.90
35497;DHT22;21609;49.298;6.844;2024-01-10T00:24:03;15.00;46.80
35497;DHT22;21609;49.298;6.844;2024-01-10T00:26:31;15.00;46.90
35497;DHT22;21609;49.298;6.844;2024-01-10T00:28:57;15.00;46.90
35497;DHT22;21609;49.298;6.844;2024-01-10T00:31:22;15.00;46.90
35497;DHT22;21609;49.298;6.844;2024-01-10T00:33:48;14.90;46.90
35497;DHT22;21609;49.298;6.844;2024-01-10T00:36:13;14.90;46.90
35497;DHT22;21609;49.298;6.844;2024-01-10T00:38:39;14.90;46.90
35497;DHT22;21609;49.298;6.844;2024-01-10T00:41:07;14.90;47.00
35497;DHT22;21609;49.298;6.844;2024-01-10T00:43:37;14.90;47.00
35497;DHT22;21609;49.298;6.844;2024-01-10T00:46:03;14.80;46.90
35497;DHT22;21609;49.298;6.844;2024-01-10T00:48:31;14.80;47.10
35497;DHT22;21609;49.298;6.844;2024-01-10T00:50:58;14.80;47.00
35497;DHT22;21609;49.298;6.844;2024-01-10T00:53:23;14.80;47.00
35497;DHT22;21609;49.298;6.844;2024-01-10T00:55:49;14.80;47.10
35497;DHT22;21609;49.298;6.844;2024-01-10T00:58:14;14.80;47.10
35497;DHT22;21609;49.298;6.844;2024-01-10T01:00:40;14.80;47.10
35497;DHT22;21609;49.298;6.844;2024-01-10T01:03:06;14.70;47.10
35497;DHT22;21609;49.298;6.844;2024-01-10T01:05:32;14.70;47.10
35497;DHT22;21609;49.298;6.844;2024-01-10T01:08:00;14.70;47.00
35497;DHT22;21609;49.298;6.844;2024-01-10T01:10:25;14.70;47.10
35497;DHT22;21609;49.298;6.844;2024-01-10T01:12:51;14.60;47.00
35497;DHT22;21609;49.298;6.844;2024-01-10T01:15:16;14.70;47.10
35497;DHT22;21609;49.298;6.844;2024-01-10T01:17:42;14.70;47.10
35497;DHT22;21609;49.298;6.844;2024-01-10T01:20:10;14.70;47.10
35497;DHT22;21609;49.298;6.844;2024-01-10T01:22:35;14.70;47.20
35497;DHT22;21609;49.298;6.844;2024-01-10T01:25:01;14.70;47.30
35497;DHT22;21609;49.298;6.844;2024-01-10T01:27:29;14.70;47.20
35497;DHT22;21609;49.298;6.844;2024-01-10T01:29:55;14.70;47.20
35497;DHT22;21609;49.298;6.844;2024-01-10T01:32:20;14.60;47.20
35497;DHT22;21609;49.298;6.844;2024-01-10T01:34:46;14.60;47.30
35497;DHT22;21609;49.298;6.844;2024-01-10T01:37:11;14.60;47.40
35497;DHT22;21609;49.298;6.844;2024-01-10T01:39:37;14.60;47.30
35497;DHT22;21609;49.298;6.844;2024-01-10T01:42:03;14.60;47.30
35497;DHT22;21609;49.298;6.844;2024-01-10T01:44:29;14.60;47.40
35497;DHT22;21609;49.298;6.844;2024-01-10T01:46:55;14.60;47.40
35497;DHT22;21609;49.298;6.844;2024-01-10T01:49:20;14.50;47.40
35497;DHT22;21609;49.298;6.844;2024-01-10T01:51:46;14.50;47.40
35497;DHT22;21609;49.298;6.844;2024-01-10T01:54:15;14.50;47.40
35497;DHT22;21609;49.298;6.844;2024-01-10T01:56:42;14.50;47.40
35497;DHT22;21609;49.298;6.844;2024-01-10T01:59:09;14.50;47.50
35497;DHT22;21609;49.298;6.844;2024-01-10T02:01:35;14.40;47.40
35497;DHT22;21609;49.298;6.844;2024-01-10T02:04:01;14.40;47.50
35497;DHT22;21609;49.298;6.844;2024-01-10T02:06:31;14.50;47.50
35497;DHT22;21609;49.298;6.844;2024-01-10T02:08:57;14.40;47.50
35497;DHT22;21609;49.298;6.844;2024-01-10T02:11:24;14.40;47.40
35497;DHT22;21609;49.298;6.844;2024-01-10T02:13:50;14.40;47.50
35497;DHT22;21609;49.298;6.844;2024-01-10T02:16:17;14.40;47.50
35497;DHT22;21609;49.298;6.844;2024-01-10T02:18:43;14.30;47.50
35497;DHT22;21609;49.298;6.844;2024-01-10T02:21:08;14.30;47.40
35497;DHT22;21609;49.298;6.844;2024-01-10T02:23:34;14.30;47.50
35497;DHT22;21609;49.298;6.844;2024-01-10T02:25:59;14.30;47.50
35497;DHT22;21609;49.298;6.844;2024-01-10T02:28:25;14.30;47.40
35497;DHT22;21609;49.298;6.844;2024-01-10T02:30:52;14.30;47.40
35497;DHT22;21609;49.298;6.844;2024-01-10T02:33:18;14.30;47.50
35497;DHT22;21609;49.298;6.844;2024-01-10T02:35:43;14.30;47.40
35497;DHT22;21609;49.298;6.844;2024-01-10T02:38:09;14.30;47.50
35497;DHT22;21609;49.298;6.844;2024-01-10T02:40:34;14.20;47.50
35497;DHT22;21609;49.298;6.844;2024-01-10T02:43:00;14.20;47.60
35497;DHT22;21609;49.298;6.844;2024-01-10T02:45:25;14.20;48.20
35497;DHT22;21609;49.298;6.844;2024-01-10T02:47:51;14.20;47.50
35497;DHT22;21609;49.298;6.844;2024-01-10T02:50:17;14.20;47.60
35497;DHT22;21609;49.298;6.844;2024-01-10T02:52:42;14.20;47.50
35497;DHT22;21609;49.298;6.844;2024-01-10T02:55:08;14.20;47.50
35497;DHT22;21609;49.298;6.844;2024-01-10T02:57:33;14.20;47.50
35497;DHT22;21609;49.298;6.844;2024-01-10T02:59:59;14.20;47.50
35497;DHT22;21609;49.298;6.844;2024-01-10T03:02:25;14.10;47.40
35497;DHT22;21609;49.298;6.844;2024-01-10T03:04:50;14.10;47.50
35497;DHT22;21609;49.298;6.844;2024-01-10T03:07:16;14.10;47.60
35497;DHT22;21609;49.298;6.844;2024-01-10T03:09:41;14.10;47.60
35497;DHT22;21609;49.298;6.844;2024-01-10T03:12:08;14.10;47.70
35497;DHT22;21609;49.298;6.844;2024-01-10T03:14:34;14.10;47.50
35497;DHT22;21609;49.298;6.844;2024-01-10T03:17:00;14.10;47.60
35497;DHT22;21609;49.298;6.844;2024-01-10T03:19:25;14.10;47.50
35497;DHT22;21609;49.298;6.844;2024-01-10T03:21:51;14.00;47.50
35497;DHT22;21609;49.298;6.844;2024-01-10T03:24:16;14.00;47.50
35497;DHT22;21609;49.298;6.844;2024-01-10T03:26:42;14.00;47.60
35497;DHT22;21609;49.298;6.844;2024-01-10T03:29:08;14.00;47.60
35497;DHT22;21609;49.298;6.844;2024-01-10T03:31:33;14.00;47.60
35497;DHT22;21609;49.298;6.844;2024-01-10T03:33:59;14.00;47.70
35497;DHT22;21609;49.298;6.844;2024-01-10T03:36:24;14.00;47.80
35497;DHT22;21609;49.298;6.844;2024-01-10T03:38:50;14.00;47.70
35497;DHT22;21609;49.298;6.844;2024-01-10T03:41:17;14.00;47.70
35497;DHT22;21609;49.298;6.844;2024-01-10T03:43:44;14.00;47.70
35497;DHT22;21609;49.298;6.844;2024-01-10T03:46:10;13.90;47.70
35497;DHT22;21609;49.298;6.844;2024-01-10T03:48:35;13.90;47.80
35497;DHT22;21609;49.298;6.844;2024-01-10T03:51:01;13.90;47.70
35497;DHT22;21609;49.298;6.844;2024-01-10T03:53:27;13.90;47.70
35497;DHT22;21609;49.298;6.844;2024-01-10T03:55:52;13.90;47.60
35497;DHT22;21609;49.298;6.844;2024-01-10T03:58:18;13.90;47.80
35497;DHT22;21609;49.298;6.844;2024-01-10T04:00:43;13.90;47.80
35497;DHT22;21609;49.298;6.844;2024-01-10T04:03:09;13.80;47.70
35497;DHT22;21609;49.298;6.844;2024-01-10T04:05:34;13.80;47.70
35497;DHT22;21609;49.298;6.844;2024-01-10T04:08:00;13.80;47.80
35497;DHT22;21609;49.298;6.844;2024-01-10T04:10:26;13.80;47.80
35497;DHT22;21609;49.298;6.844;2024-01-10T04:12:51;13.80;47.70
35497;DHT22;21609;49.298;6.844;2024-01-10T04:15:17;13.80;47.80
35497;DHT22;21609;49.298;6.844;2024-01-10T04:17:45;13.80;47.90
35497;DHT22;21609;49.298;6.844;2024-01-10T04:20:11;13.80;47.80
35497;DHT22;21609;49.298;6.844;2024-01-10T04:22:37;13.70;47.80
35497;DHT22;21609;49.298;6.844;2024-01-10T04:25:06;13.80;47.80
35497;DHT22;21609;49.298;6.844;2024-01-10T04:27:32;13.70;48.10
35497;DHT22;21609;49.298;6.844;2024-01-10T04:29:58;13.70;47.80
35497;DHT22;21609;49.298;6.844;2024-01-10T04:32:23;13.70;47.80
35497;DHT22;21609;49.298;6.844;2024-01-10T04:34:49;13.70;47.80
35497;DHT22;21609;49.298;6.844;2024-01-10T04:37:15;13.70;47.90
35497;DHT22;21609;49.298;6.844;2024-01-10T04:39:41;13.70;47.90
35497;DHT22;21609;49.298;6.844;2024-01-10T04:42:08;13.70;47.80
35497;DHT22;21609;49.298;6.844;2024-01-10T04:44:34;13.70;47.90
35497;DHT22;21609;49.298;6.844;2024-01-10T04:46:59;13.70;47.90
35497;DHT22;21609;49.298;6.844;2024-01-10T04:49:25;13.70;47.90
35497;DHT22;21609;49.298;6.844;2024-01-10T04:51:51;13.60;47.90
35497;DHT22;21609;49.298;6.844;2024-01-10T04:54:16;13.60;47.90
35497;DHT22;21609;49.298;6.844;2024-01-10T04:56:42;13.60;47.90
35497;DHT22;21609;49.298;6.844;2024-01-10T04:59:08;13.60;47.90
35497;DHT22;21609;49.298;6.844;2024-01-10T05:01:33;13.60;47.90
35497;DHT22;21609;49.298;6.844;2024-01-10T05:03:59;13.60;48.00
35497;DHT22;21609;49.298;6.844;2024-01-10T05:06:24;13.60;48.00
35497;DHT22;21609;49.298;6.844;2024-01-10T05:08:50;13.60;48.00
35497;DHT22;21609;49.298;6.844;2024-01-10T05:11:16;13.60;47.90
35497;DHT22;21609;49.298;6.844;2024-01-10T05:13:43;13.50;47.90
35497;DHT22;21609;49.298;6.844;2024-01-10T05:16:08;13.50;48.00
35497;DHT22;21609;49.298;6.844;2024-01-10T05:18:34;13.50;48.00
35497;DHT22;21609;49.298;6.844;2024-01-10T05:21:00;13.50;47.90
35497;DHT22;21609;49.298;6.844;2024-01-10T05:23:26;13.50;48.00
35497;DHT22;21609;49.298;6.844;2024-01-10T05:25:53;13.50;48.00
35497;DHT22;21609;49.298;6.844;2024-01-10T05:28:19;13.50;48.00
35497;DHT22;21609;49.298;6.844;2024-01-10T05:30:44;13.50;48.00
35497;DHT22;21609;49.298;6.844;2024-01-10T05:33:10;13.50;48.10
35497;DHT22;21609;49.298;6.844;2024-01-10T05:35:36;13.50;48.10
35497;DHT22;21609;49.298;6.844;2024-01-10T05:38:02;13.40;48.00
35497;DHT22;21609;49.298;6.844;2024-01-10T05:40:28;13.40;48.00
35497;DHT22;21609;49.298;6.844;2024-01-10T05:42:58;13.40;48.00
35497;DHT22;21609;49.298;6.844;2024-01-10T05:45:26;13.40;47.90
35497;DHT22;21609;49.298;6.844;2024-01-10T05:47:52;13.40;48.00
35497;DHT22;21609;49.298;6.844;2024-01-10T05:50:18;13.40;48.60
35497;DHT22;21609;49.298;6.844;2024-01-10T05:52:43;13.40;48.10
35497;DHT22;21609;49.298;6.844;2024-01-10T05:55:09;13.40;48.20
35497;DHT22;21609;49.298;6.844;2024-01-10T05:57:38;13.40;48.10
35497;DHT22;21609;49.298;6.844;2024-01-10T06:00:05;13.30;48.20
35497;DHT22;21609;49.298;6.844;2024-01-10T06:02:37;13.30;48.10
35497;DHT22;21609;49.298;6.844;2024-01-10T06:05:11;13.30;48.30
35497;DHT22;21609;49.298;6.844;2024-01-10T06:07:37;13.30;48.10
35497;DHT22;21609;49.298;6.844;2024-01-10T06:10:03;13.30;48.10
35497;DHT22;21609;49.298;6.844;2024-01-10T06:12:29;13.30;48.20
35497;DHT22;21609;49.298;6.844;2024-01-10T06:14:55;13.30;48.20
35497;DHT22;21609;49.298;6.844;2024-01-10T06:17:21;13.30;48.10
35497;DHT22;21609;49.298;6.844;2024-01-10T06:19:47;13.20;48.00
35497;DHT22;21609;49.298;6.844;2024-01-10T06:22:12;13.20;48.10
35497;DHT22;21609;49.298;6.844;2024-01-10T06:24:38;13.30;48.10
35497;DHT22;21609;49.298;6.844;2024-01-10T06:27:04;13.30;48.20
35497;DHT22;21609;49.298;6.844;2024-01-10T06:29:31;13.20;48.20
35497;DHT22;21609;49.298;6.844;2024-01-10T06:31:56;13.20;48.20
35497;DHT22;21609;49.298;6.844;2024-01-10T06:34:23;13.20;48.20
35497;DHT22;21609;49.298;6.844;2024-01-10T06:36:49;13.20;48.20
35497;DHT22;21609;49.298;6.844;2024-01-10T06:39:14;13.20;48.10
35497;DHT22;21609;49.298;6.844;2024-01-10T06:41:47;13.20;48.30
35497;DHT22;21609;49.298;6.844;2024-01-10T06:44:14;13.20;48.40
35497;DHT22;21609;49.298;6.844;2024-01-10T06:46:39;13.20;48.20
35497;DHT22;21609;49.298;6.844;2024-01-10T06:49:05;13.20;48.20
35497;DHT22;21609;49.298;6.844;2024-01-10T06:51:33;13.20;48.20
35497;DHT22;21609;49.298;6.844;2024-01-10T06:53:58;13.10;48.30
35497;DHT22;21609;49.298;6.844;2024-01-10T06:56:29;13.10;48.30
35497;DHT22;21609;49.298;6.844;2024-01-10T06:58:55;13.10;48.30
35497;DHT22;21609;49.298;6.844;2024-01-10T07:01:20;13.10;48.30
35497;DHT22;21609;49.298;6.844;2024-01-10T07:03:47;13.10;48.30
35497;DHT22;21609;49.298;6.844;2024-01-10T07:06:13;13.10;48.30
35497;DHT22;21609;49.298;6.844;2024-01-10T07:08:40;13.10;48.30
35497;DHT22;21609;49.298;6.844;2024-01-10T07:11:07;13.10;48.30
35497;DHT22;21609;49.298;6.844;2024-01-10T07:13:33;13.10;48.30
35497;DHT22;21609;49.298;6.844;2024-01-10T07:15:59;13.10;48.30
35497;DHT22;21609;49.298;6.844;2024-01-10T07:18:30;13.10;48.30
35497;DHT22;21609;49.298;6.844;2024-01-10T07:20:58;13.00;48.30
35497;DHT22;21609;49.298;6.844;2024-01-10T07:23:24;13.10;48.30
35497;DHT22;21609;49.298;6.844;2024-01-10T07:25:50;13.00;48.30
35497;DHT22;21609;49.298;6.844;2024-01-10T07:28:17;13.00;48.40
35497;DHT22;21609;49.298;6.844;2024-01-10T07:30:43;13.00;48.30
35497;DHT22;21609;49.298;6.844;2024-01-10T07:33:10;12.90;47.20
35497;DHT22;21609;49.298;6.844;2024-01-10T07:35:36;12.60;48.10
35497;DHT22;21609;49.298;6.844;2024-01-10T07:38:01;12.20;45.60
35497;DHT22;21609;49.298;6.844;2024-01-10T07:40:27;12.60;48.10
35497;DHT22;21609;49.298;6.844;2024-01-10T07:42:52;12.90;47.40
35497;DHT22;21609;49.298;6.844;2024-01-10T07:45:18;13.20;46.90
35497;DHT22;21609;49.298;6.844;2024-01-10T07:47:43;13.50;46.60
35497;DHT22;21609;49.298;6.844;2024-01-10T07:50:10;13.60;46.20
35497;DHT22;21609;49.298;6.844;2024-01-10T07:52:40;13.80;46.00
35497;DHT22;21609;49.298;6.844;2024-01-10T07:55:06;13.90;45.90
35497;DHT22;21609;49.298;6.844;2024-01-10T07:57:35;14.00;45.70
35497;DHT22;21609;49.298;6.844;2024-01-10T08:00:03;14.20;45.60
35497;DHT22;21609;49.298;6.844;2024-01-10T08:02:29;14.30;45.60
35497;DHT22;21609;49.298;6.844;2024-01-10T08:05:05;14.30;45.50
35497;DHT22;21609;49.298;6.844;2024-01-10T08:07:34;14.40;45.30
35497;DHT22;21609;49.298;6.844;2024-01-10T08:10:00;14.60;45.40
35497;DHT22;21609;49.298;6.844;2024-01-10T08:12:25;14.70;45.20
35497;DHT22;21609;49.298;6.844;2024-01-10T08:14:51;14.90;45.20
35497;DHT22;21609;49.298;6.844;2024-01-10T08:17:17;15.00;45.00
35497;DHT22;21609;49.298;6.844;2024-01-10T08:19:42;15.10;45.00
35497;DHT22;21609;49.298;6.844;2024-01-10T08:22:08;15.20;45.00
35497;DHT22;21609;49.298;6.844;2024-01-10T08:24:34;15.30;44.90
35497;DHT22;21609;49.298;6.844;2024-01-10T08:26:59;15.40;44.90
35497;DHT22;21609;49.298;6.844;2024-01-10T08:29:25;15.50;45.10
35497;DHT22;21609;49.298;6.844;2024-01-10T08:31:55;15.60;45.20
35497;DHT22;21609;49.298;6.844;2024-01-10T08:34:22;15.50;45.40
35497;DHT22;21609;49.298;6.844;2024-01-10T08:36:47;15.50;45.60
35497;DHT22;21609;49.298;6.844;2024-01-10T08:39:16;15.60;45.80
35497;DHT22;21609;49.298;6.844;2024-01-10T08:41:42;15.60;45.70
35497;DHT22;21609;49.298;6.844;2024-01-10T08:44:10;15.70;45.70
35497;DHT22;21609;49.298;6.844;2024-01-10T08:46:35;15.70;45.70
35497;DHT22;21609;49.298;6.844;2024-01-10T08:49:01;15.70;45.70
35497;DHT22;21609;49.298;6.844;2024-01-10T08:51:26;15.80;45.60
35497;DHT22;21609;49.298;6.844;2024-01-10T08:53:52;15.90;45.50
35497;DHT22;21609;49.298;6.844;2024-01-10T08:56:18;15.90;45.50
35497;DHT22;21609;49.298;6.844;2024-01-10T08:58:45;16.00;45.40
35497;DHT22;21609;49.298;6.844;2024-01-10T09:01:10;16.10;45.30
35497;DHT22;21609;49.298;6.844;2024-01-10T09:03:36;16.10;45.20
35497;DHT22;21609;49.298;6.844;2024-01-10T09:06:03;16.20;45.20
35497;DHT22;21609;49.298;6.844;2024-01-10T09:08:29;16.30;45.00
35497;DHT22;21609;49.298;6.844;2024-01-10T09:10:55;16.30;44.90
35497;DHT22;21609;49.298;6.844;2024-01-10T09:13:20;16.40;44.80
35497;DHT22;21609;49.298;6.844;2024-01-10T09:15:46;16.40;44.80
35497;DHT22;21609;49.298;6.844;2024-01-10T09:18:12;16.40;45.00
35497;DHT22;21609;49.298;6.844;2024-01-10T09:20:37;16.40;45.10
35497;DHT22;21609;49.298;6.844;2024-01-10T09:23:03;16.40;45.40
35497;DHT22;21609;49.298;6.844;2024-01-10T09:25:29;16.50;45.20
35497;DHT22;21609;49.298;6.844;2024-01-10T09:27:55;16.60;45.10
35497;DHT22;21609;49.298;6.844;2024-01-10T09:30:21;16.70;45.00
35497;DHT22;21609;49.298;6.844;2024-01-10T09:32:47;16.80;45.00
35497;DHT22;21609;49.298;6.844;2024-01-10T09:35:12;16.70;45.10
35497;DHT22;21609;49.298;6.844;2024-01-10T09:37:39;16.70;45.10
35497;DHT22;21609;49.298;6.844;2024-01-10T09:40:08;16.80;45.10
35497;DHT22;21609;49.298;6.844;2024-01-10T09:42:35;16.80;45.00
35497;DHT22;21609;49.298;6.844;2024-01-10T09:45:03;16.90;44.80
35497;DHT22;21609;49.298;6.844;2024-01-10T09:47:32;16.90;44.90
35497;DHT22;21609;49.298;6.844;2024-01-10T09:49:58;16.90;45.00
35497;DHT22;21609;49.298;6.844;2024-01-10T09:52:34;16.90;44.70
35497;DHT22;21609;49.298;6.844;2024-01-10T09:55:04;17.00;44.50
35497;DHT22;21609;49.298;6.844;2024-01-10T09:57:30;17.10;44.40
35497;DHT22;21609;49.298;6.844;2024-01-10T09:59:59;17.20;44.30
35497;DHT22;21609;49.298;6.844;2024-01-10T10:02:24;17.20;44.20
35497;DHT22;21609;49.298;6.844;2024-01-10T10:04:57;17.20;44.10
35497;DHT22;21609;49.298;6.844;2024-01-10T10:07:29;17.40;44.10
35497;DHT22;21609;49.298;6.844;2024-01-10T10:09:55;17.50;43.90
35497;DHT22;21609;49.298;6.844;2024-01-10T10:12:44;17.50;43.80
35497;DHT22;21609;49.298;6.844;2024-01-10T10:15:13;17.50;43.80
35497;DHT22;21609;49.298;6.844;2024-01-10T10:17:40;17.50;44.00
35497;DHT22;21609;49.298;6.844;2024-01-10T10:20:14;17.60;43.90
35497;DHT22;21609;49.298;6.844;2024-01-10T10:22:41;17.60;44.00
35497;DHT22;21609;49.298;6.844;2024-01-10T10:27:58;17.80;43.70
35497;DHT22;21609;49.298;6.844;2024-01-10T10:30:25;17.90;43.60
35497;DHT22;21609;49.298;6.844;2024-01-10T10:32:51;18.00;43.50
35497;DHT22;21609;49.298;6.844;2024-01-10T10:35:21;18.00;43.50
35497;DHT22;21609;49.298;6.844;2024-01-10T10:37:48;18.10;43.60
35497;DHT22;21609;49.298;6.844;2024-01-10T10:40:15;18.10;44.20
35497;DHT22;21609;49.298;6.844;2024-01-10T10:42:44;18.20;43.80
35497;DHT22;21609;49.298;6.844;2024-01-10T10:45:16;18.20;43.80
35497;DHT22;21609;49.298;6.844;2024-01-10T10:47:58;18.20;43.70
35497;DHT22;21609;49.298;6.844;2024-01-10T10:50:32;17.80;44.10
35497;DHT22;21609;49.298;6.844;2024-01-10T10:53:00;17.90;44.20
35497;DHT22;21609;49.298;6.844;2024-01-10T10:55:29;18.00;44.20
35497;DHT22;21609;49.298;6.844;2024-01-10T10:57:55;18.10;44.20
35497;DHT22;21609;49.298;6.844;2024-01-10T11:00:23;18.10;44.20
35497;DHT22;21609;49.298;6.844;2024-01-10T11:02:56;18.10;44.40
35497;DHT22;21609;49.298;6.844;2024-01-10T11:05:23;18.10;44.40
35497;DHT22;21609;49.298;6.844;2024-01-10T11:07:49;18.10;44.60
35497;DHT22;21609;49.298;6.844;2024-01-10T11:10:28;18.20;44.50
35497;DHT22;21609;49.298;6.844;2024-01-10T11:18:54;18.20;44.30
35497;DHT22;21609;49.298;6.844;2024-01-10T11:22:00;18.30;44.20
35497;DHT22;21609;49.298;6.844;2024-01-10T11:24:30;18.30;44.20
35497;DHT22;21609;49.298;6.844;2024-01-10T11:27:13;18.40;44.30
35497;DHT22;21609;49.298;6.844;2024-01-10T11:29:40;18.40;44.10
35497;DHT22;21609;49.298;6.844;2024-01-10T11:32:07;18.40;44.20
35497;DHT22;21609;49.298;6.844;2024-01-10T11:34:35;18.50;44.20
35497;DHT22;21609;49.298;6.844;2024-01-10T11:37:10;18.50;44.00
35497;DHT22;21609;49.298;6.844;2024-01-10T11:39:37;18.60;44.30
35497;DHT22;21609;49.298;6.844;2024-01-10T11:42:08;18.70;44.00
35497;DHT22;21609;49.298;6.844;2024-01-10T11:44:34;18.60;44.10
35497;DHT22;21609;49.298;6.844;2024-01-10T11:47:13;18.70;44.00
35497;DHT22;21609;49.298;6.844;2024-01-10T11:49:40;18.70;43.80
35497;DHT22;21609;49.298;6.844;2024-01-10T11:52:05;18.70;44.10
35497;DHT22;21609;49.298;6.844;2024-01-10T11:54:38;18.70;44.00
35497;DHT22;21609;49.298;6.844;2024-01-10T11:57:25;18.70;43.70
35497;DHT22;21609;49.298;6.844;2024-01-10T11:59:53;18.80;43.90
35497;DHT22;21609;49.298;6.844;2024-01-10T12:02:21;18.80;44.10
35497;DHT22;21609;49.298;6.844;2024-01-10T12:04:47;18.80;44.10
35497;DHT22;21609;49.298;6.844;2024-01-10T12:07:14;18.80;43.90
35497;DHT22;21609;49.298;6.844;2024-01-10T12:09:40;18.80;43.90
35497;DHT22;21609;49.298;6.844;2024-01-10T12:12:07;18.90;43.90
35497;DHT22;21609;49.298;6.844;2024-01-10T12:14:34;18.90;44.10
35497;DHT22;21609;49.298;6.844;2024-01-10T12:17:00;18.80;44.10
35497;DHT22;21609;49.298;6.844;2024-01-10T12:19:26;18.80;44.10
35497;DHT22;21609;49.298;6.844;2024-01-10T12:21:51;18.90;43.90
35497;DHT22;21609;49.298;6.844;2024-01-10T12:24:18;18.90;43.90
35497;DHT22;21609;49.298;6.844;2024-01-10T12:26:47;18.90;43.90
35497;DHT22;21609;49.298;6.844;2024-01-10T12:29:13;18.90;43.90
35497;DHT22;21609;49.298;6.844;2024-01-10T12:31:42;18.80;43.90
35497;DHT22;21609;49.298;6.844;2024-01-10T12:34:09;18.70;43.90
35497;DHT22;21609;49.298;6.844;2024-01-10T12:36:38;18.70;44.00
35497;DHT22;21609;49.298;6.844;2024-01-10T12:39:04;18.70;44.00
35497;DHT22;21609;49.298;6.844;2024-01-10T12:41:32;18.70;44.10
35497;DHT22;21609;49.298;6.844;2024-01-10T12:43:59;18.70;44.00
35497;DHT22;21609;49.298;6.844;2024-01-10T12:46:28;18.70;43.90
35497;DHT22;21609;49.298;6.844;2024-01-10T12:49:05;18.70;44.00
35497;DHT22;21609;49.298;6.844;2024-01-10T12:51:33;18.70;44.20
35497;DHT22;21609;49.298;6.844;2024-01-10T12:54:00;18.70;44.10
35497;DHT22;21609;49.298;6.844;2024-01-10T12:56:26;18.70;44.30
35497;DHT22;21609;49.298;6.844;2024-01-10T12:58:52;18.70;44.00
35497;DHT22;21609;49.298;6.844;2024-01-10T13:01:18;18.80;44.10
35497;DHT22;21609;49.298;6.844;2024-01-10T13:03:43;18.80;44.10
35497;DHT22;21609;49.298;6.844;2024-01-10T13:06:09;18.80;43.90
35497;DHT22;21609;49.298;6.844;2024-01-10T13:08:36;18.80;44.30
35497;DHT22;21609;49.298;6.844;2024-01-10T13:11:02;18.80;44.20
35497;DHT22;21609;49.298;6.844;2024-01-10T13:13:33;18.70;44.10
35497;DHT22;21609;49.298;6.844;2024-01-10T13:15:59;18.70;44.00
35497;DHT22;21609;49.298;6.844;2024-01-10T13:18:25;18.70;43.80
35497;DHT22;21609;49.298;6.844;2024-01-10T13:20:54;18.70;43.80
35497;DHT22;21609;49.298;6.844;2024-01-10T13:23:20;18.60;43.60
35497;DHT22;21609;49.298;6.844;2024-01-10T13:25:47;18.60;43.70
35497;DHT22;21609;49.298;6.844;2024-01-10T13:28:13;18.50;43.50
35497;DHT22;21609;49.298;6.844;2024-01-10T13:30:39;18.50;43.70
35497;DHT22;21609;49.298;6.844;2024-01-10T13:33:08;18.40;43.60
35497;DHT22;21609;49.298;6.844;2024-01-10T13:35:35;18.40;43.70
35497;DHT22;21609;49.298;6.844;2024-01-10T13:38:01;18.30;43.50
35497;DHT22;21609;49.298;6.844;2024-01-10T13:40:26;18.30;43.80
35497;DHT22;21609;49.298;6.844;2024-01-10T13:42:52;18.30;43.70
35497;DHT22;21609;49.298;6.844;2024-01-10T13:45:18;18.30;43.70
35497;DHT22;21609;49.298;6.844;2024-01-10T13:47:44;18.20;43.60
35497;DHT22;21609;49.298;6.844;2024-01-10T13:50:10;18.20;43.70
35497;DHT22;21609;49.298;6.844;2024-01-10T13:52:36;18.10;43.70
35497;DHT22;21609;49.298;6.844;2024-01-10T13:55:02;18.10;43.60
35497;DHT22;21609;49.298;6.844;2024-01-10T13:57:31;18.00;43.70
35497;DHT22;21609;49.298;6.844;2024-01-10T14:00:00;18.00;43.70
35497;DHT22;21609;49.298;6.844;2024-01-10T14:02:26;17.90;43.90
35497;DHT22;21609;49.298;6.844;2024-01-10T14:04:52;17.90;43.80
35497;DHT22;21609;49.298;6.844;2024-01-10T14:07:19;17.90;43.60
35497;DHT22;21609;49.298;6.844;2024-01-10T14:09:45;17.80;43.80
35497;DHT22;21609;49.298;6.844;2024-01-10T14:12:12;17.70;43.90
35497;DHT22;21609;49.298;6.844;2024-01-10T14:14:37;17.70;44.00
35497;DHT22;21609;49.298;6.844;2024-01-10T14:17:03;17.70;44.20
35497;DHT22;21609;49.298;6.844;2024-01-10T14:19:29;17.60;44.20
35497;DHT22;21609;49.298;6.844;2024-01-10T14:21:55;17.60;44.30
35497;DHT22;21609;49.298;6.844;2024-01-10T14:24:21;17.60;44.40
35497;DHT22;21609;49.298;6.844;2024-01-10T14:26:46;17.60;44.60
35497;DHT22;21609;49.298;6.844;2024-01-10T14:29:12;17.60;44.60
35497;DHT22;21609;49.298;6.844;2024-01-10T14:31:38;17.60;44.60
35497;DHT22;21609;49.298;6.844;2024-01-10T14:34:05;17.60;44.40
35497;DHT22;21609;49.298;6.844;2024-01-10T14:36:31;17.60;44.40
35497;DHT22;21609;49.298;6.844;2024-01-10T14:38:56;17.60;44.40
35497;DHT22;21609;49.298;6.844;2024-01-10T14:41:22;17.50;44.40
35497;DHT22;21609;49.298;6.844;2024-01-10T14:43:47;17.50;44.60
35497;DHT22;21609;49.298;6.844;2024-01-10T14:46:13;17.50;44.50
35497;DHT22;21609;49.298;6.844;2024-01-10T14:48:39;17.50;44.60
35497;DHT22;21609;49.298;6.844;2024-01-10T14:51:04;17.50;44.60
35497;DHT22;21609;49.298;6.844;2024-01-10T14:53:30;17.50;44.60
35497;DHT22;21609;49.298;6.844;2024-01-10T14:55:56;17.40;44.60
35497;DHT22;21609;49.298;6.844;2024-01-10T14:58:22;17.40;44.70
35497;DHT22;21609;49.298;6.844;2024-01-10T15:00:48;17.30;45.40
35497;DHT22;21609;49.298;6.844;2024-01-10T15:03:13;17.30;44.90
35497;DHT22;21609;49.298;6.844;2024-01-10T15:05:41;17.20;45.00
35497;DHT22;21609;49.298;6.844;2024-01-10T15:08:07;17.20;44.80
35497;DHT22;21609;49.298;6.844;2024-01-10T15:10:37;17.20;45.00
35497;DHT22;21609;49.298;6.844;2024-01-10T15:13:09;17.20;45.20
35497;DHT22;21609;49.298;6.844;2024-01-10T15:15:37;17.10;45.00
35497;DHT22;21609;49.298;6.844;2024-01-10T15:18:04;17.10;45.00
35497;DHT22;21609;49.298;6.844;2024-01-10T15:20:29;17.10;45.00
35497;DHT22;21609;49.298;6.844;2024-01-10T15:22:56;17.10;45.00
35497;DHT22;21609;49.298;6.844;2024-01-10T15:25:21;17.00;44.90
35497;DHT22;21609;49.298;6.844;2024-01-10T15:27:47;17.00;45.00
35497;DHT22;21609;49.298;6.844;2024-01-10T15:30:13;17.00;45.00
35497;DHT22;21609;49.298;6.844;2024-01-10T15:32:39;16.90;45.10
35497;DHT22;21609;49.298;6.844;2024-01-10T15:35:04;16.90;45.10
35497;DHT22;21609;49.298;6.844;2024-01-10T15:37:30;16.90;45.20